Time;durP1;ratioP1;P1;durP2;ratioP2;P2;SDS_P1;SDS_P2;PMS_P1;PMS_P2;Temp;Humidity;BMP_temperature;BMP_pressure;BME280_temperature;BME280_humidity;BME280_pressure;Samples;Min_cycle;Max_cycle;Signal;HPM_P1;HPM_P2
2021/06/08 00:01:41;;;;;;;;;;;;;;;18.29;58.29;100876.56;4917441;29;20038;-65
2021/06/08 00:04:08;;;;;;;;;;;;;;;18.31;58.55;100881.88;4917756;29;19958;-64
2021/06/08 00:06:34;;;;;;;;;;;;;;;18.31;58.11;100882.69;4917375;29;20026;-65
2021/06/08 00:09:01;;;;;;;;;;;;;;;18.34;58.24;100884.06;4916452;29;19926;-65
2021/06/08 00:11:28;;;;;;;;;;;;;;;18.34;58.42;100872.75;4917642;29;19923;-65
2021/06/08 00:13:55;;;;;;;;;;;;;;;18.34;58.49;100876.41;4917330;29;19977;-65
2021/06/08 00:16:21;;;;;;;;;;;;;;;18.35;58.09;100877.22;4917242;29;20080;-64
2021/06/08 00:18:48;;;;;;;;;;;;;;;18.36;58.26;100876.06;4917157;29;20021;-64
2021/06/08 00:21:15;;;;;;;;;;;;;;;18.34;58.00;100869.91;4917198;29;19974;-65
2021/06/08 00:23:42;;;;;;;;;;;;;;;18.30;58.27;100866.91;4917217;29;19934;-65
2021/06/08 00:26:08;;;;;;;;;;;;;;;18.26;58.16;100865.06;4917221;29;20022;-65
2021/06/08 00:28:35;;;;;;;;;;;;;;;18.23;58.33;100861.72;4917440;29;20422;-65
2021/06/08 00:31:02;;;;;;;;;;;;;;;18.20;58.09;100868.00;4917123;29;19923;-65
2021/06/08 00:33:29;;;;;;;;;;;;;;;18.21;57.93;100863.19;4917121;29;19923;-66
2021/06/08 00:35:55;;;;;;;;;;;;;;;18.17;58.13;100863.00;4917117;29;20025;-65
2021/06/08 00:38:22;;;;;;;;;;;;;;;18.10;58.01;100868.28;4917365;29;20022;-64
2021/06/08 00:40:49;;;;;;;;;;;;;;;18.00;57.88;100871.38;4917100;29;20030;-64
2021/06/08 00:43:15;;;;;;;;;;;;;;;17.98;58.15;100870.88;4916124;29;20030;-64
2021/06/08 00:45:42;;;;;;;;;;;;;;;17.91;58.26;100876.97;4917345;29;20018;-66
2021/06/08 00:48:09;;;;;;;;;;;;;;;17.84;58.43;100867.28;4919118;29;20010;-64
2021/06/08 00:50:36;;;;;;;;;;;;;;;17.77;58.44;100871.38;4920645;29;20443;-64
2021/06/08 00:53:02;;;;;;;;;;;;;;;17.71;58.25;100872.66;4920958;29;20013;-64
2021/06/08 00:55:29;;;;;;;;;;;;;;;17.64;58.33;100866.63;4920920;29;20350;-65
2021/06/08 00:57:56;;;;;;;;;;;;;;;17.60;58.57;100859.94;4920938;29;19958;-65
2021/06/08 01:00:24;;;;;;;;;;;;;;;17.58;58.77;100869.91;4920583;29;20018;-64
2021/06/08 01:02:51;;;;;;;;;;;;;;;17.56;58.74;100864.56;4920763;29;19927;-66
2021/06/08 01:05:18;;;;;;;;;;;;;;;17.53;58.67;100870.84;4920475;29;19923;-64
2021/06/08 01:07:45;;;;;;;;;;;;;;;17.47;58.98;100861.69;4920610;29;20372;-65
2021/06/08 01:10:13;;;;;;;;;;;;;;;17.40;59.58;100866.06;4920238;29;19927;-65
2021/06/08 01:12:40;;;;;;;;;;;;;;;17.38;59.68;100859.94;4920492;29;20018;-65
2021/06/08 01:15:07;;;;;;;;;;;;;;;17.13;61.59;100872.63;4920240;29;19981;-65
2021/06/08 01:17:34;;;;;;;;;;;;;;;17.16;61.14;100872.88;4920183;29;19926;-65
2021/06/08 01:20:00;;;;;;;;;;;;;;;17.13;61.04;100864.16;4920174;29;20005;-65
2021/06/08 01:22:28;;;;;;;;;;;;;;;17.14;61.37;100866.69;4920113;29;19973;-65
2021/06/08 01:24:55;;;;;;;;;;;;;;;17.06;61.76;100873.09;4920042;29;20014;-65
2021/06/08 01:27:22;;;;;;;;;;;;;;;17.10;61.31;100868.47;4920259;29;20043;-65
2021/06/08 01:29:51;;;;;;;;;;;;;;;16.91;62.69;100859.31;4920233;29;19923;-65
2021/06/08 01:32:19;;;;;;;;;;;;;;;16.94;62.53;100865.16;4920142;29;20009;-65
2021/06/08 01:34:46;;;;;;;;;;;;;;;16.86;63.02;100865.09;4920136;29;20011;-64
2021/06/08 01:37:14;;;;;;;;;;;;;;;16.89;62.62;100853.13;4919737;29;19970;-64
2021/06/08 01:39:41;;;;;;;;;;;;;;;16.92;62.47;100853.38;4919747;29;20018;-65
2021/06/08 01:42:08;;;;;;;;;;;;;;;16.85;63.00;100866.22;4919852;29;19922;-64
2021/06/08 01:44:35;;;;;;;;;;;;;;;16.87;62.86;100863.94;4919929;29;20016;-64
2021/06/08 01:47:02;;;;;;;;;;;;;;;16.72;63.92;100868.72;4919953;29;20270;-65
2021/06/08 01:49:28;;;;;;;;;;;;;;;16.63;64.34;100867.78;4919874;29;19924;-65
2021/06/08 01:51:59;;;;;;;;;;;;;;;16.61;64.42;100872.88;4919482;29;19942;-64
2021/06/08 01:54:43;;;;;;;;;;;;;;;16.53;65.36;100876.44;4919790;29;20339;-64
2021/06/08 01:57:16;;;;;;;;;;;;;;;16.65;64.76;100870.25;4919743;29;20295;-64
2021/06/08 01:59:44;;;;;;;;;;;;;;;16.78;63.97;100881.56;4919580;29;20002;-64
2021/06/08 02:02:15;;;;;;;;;;;;;;;16.87;63.58;100886.50;4919784;29;20005;-64
2021/06/08 02:05:01;;;;;;;;;;;;;;;16.86;64.12;100876.38;4920151;29;20007;-64
2021/06/08 02:07:27;;;;;;;;;;;;;;;16.81;64.44;100872.47;4919393;29;20016;-65
2021/06/08 02:09:57;;;;;;;;;;;;;;;16.86;64.09;100867.91;4919211;29;19985;-64
2021/06/08 02:12:23;;;;;;;;;;;;;;;16.80;64.47;100862.34;4919250;29;20383;-64
2021/06/08 02:14:56;;;;;;;;;;;;;;;16.86;64.17;100870.72;4919096;29;19923;-64
2021/06/08 02:17:25;;;;;;;;;;;;;;;16.93;63.79;100868.31;4919082;29;20022;-64
2021/06/08 02:19:55;;;;;;;;;;;;;;;17.02;63.41;100878.50;4919457;29;20018;-64
2021/06/08 02:22:23;;;;;;;;;;;;;;;17.12;63.00;100868.97;4919152;29;20352;-64
2021/06/08 02:24:50;;;;;;;;;;;;;;;17.21;62.66;100861.44;4918975;29;20009;-65
2021/06/08 02:27:21;;;;;;;;;;;;;;;17.33;62.49;100868.50;4918819;29;19965;-64
2021/06/08 02:29:48;;;;;;;;;;;;;;;17.39;62.55;100858.78;4919912;29;20005;-64
2021/06/08 02:32:15;;;;;;;;;;;;;;;17.39;62.30;100856.78;4919149;29;19927;-64
2021/06/08 02:34:43;;;;;;;;;;;;;;;17.37;62.22;100859.09;4918829;29;19933;-64
2021/06/08 02:37:12;;;;;;;;;;;;;;;17.36;62.09;100859.41;4919802;29;20301;-63
2021/06/08 02:39:42;;;;;;;;;;;;;;;17.29;62.15;100855.03;4919014;29;20345;-64
2021/06/08 02:42:09;;;;;;;;;;;;;;;17.10;62.98;100851.56;4918701;29;20010;-65
2021/06/08 02:44:36;;;;;;;;;;;;;;;17.05;63.41;100855.31;4919476;29;20006;-64
2021/06/08 02:47:04;;;;;;;;;;;;;;;16.78;64.39;100864.66;4918639;29;19929;-64
2021/06/08 02:49:31;;;;;;;;;;;;;;;16.68;64.82;100861.19;4918446;29;19974;-64
2021/06/08 02:51:59;;;;;;;;;;;;;;;16.44;65.91;100850.13;4918766;29;19929;-64
2021/06/08 02:54:26;;;;;;;;;;;;;;;16.43;66.10;100854.09;4918740;29;19997;-64
2021/06/08 02:56:53;;;;;;;;;;;;;;;16.44;65.74;100858.56;4918712;29;20352;-63
2021/06/08 02:59:20;;;;;;;;;;;;;;;16.27;66.48;100862.00;4918356;29;20017;-64
2021/06/08 03:01:49;;;;;;;;;;;;;;;16.15;66.85;100861.69;4901808;29;20010;-63
2021/06/08 03:04:18;;;;;;;;;;;;;;;16.03;66.86;100863.03;4918566;29;19923;-63
2021/06/08 03:06:48;;;;;;;;;;;;;;;15.86;67.79;100857.97;4918554;29;20005;-64
2021/06/08 03:09:16;;;;;;;;;;;;;;;15.83;67.68;100858.59;4918954;29;19970;-65
2021/06/08 03:11:46;;;;;;;;;;;;;;;15.82;67.79;100864.53;4917932;29;19981;-64
2021/06/08 03:14:15;;;;;;;;;;;;;;;15.90;67.59;100863.84;4918062;29;19927;-65
2021/06/08 03:16:48;;;;;;;;;;;;;;;15.87;67.88;100864.44;4918366;29;19923;-65
2021/06/08 03:19:17;;;;;;;;;;;;;;;15.71;68.49;100865.84;4917981;29;19926;-65
2021/06/08 03:21:48;;;;;;;;;;;;;;;15.82;68.25;100856.91;4918360;29;20010;-64
2021/06/08 03:24:15;;;;;;;;;;;;;;;15.94;67.66;100849.97;4918401;29;19982;-64
2021/06/08 03:26:43;;;;;;;;;;;;;;;15.97;67.87;100854.97;4918227;29;20021;-64
2021/06/08 03:29:10;;;;;;;;;;;;;;;16.02;67.58;100852.88;4918554;29;19962;-64
2021/06/08 03:31:39;;;;;;;;;;;;;;;16.07;67.54;100854.78;4917738;29;19929;-64
2021/06/08 03:34:07;;;;;;;;;;;;;;;15.84;68.50;100856.63;4917764;29;19955;-64
2021/06/08 03:36:34;;;;;;;;;;;;;;;15.88;68.17;100861.31;4917981;29;19927;-64
2021/06/08 03:39:01;;;;;;;;;;;;;;;15.86;68.26;100857.97;4917706;29;19934;-64
2021/06/08 03:41:29;;;;;;;;;;;;;;;15.68;69.14;100861.66;4917696;29;19929;-64
2021/06/08 03:43:55;;;;;;;;;;;;;;;15.72;68.64;100851.44;4917653;29;19959;-64
2021/06/08 03:46:25;;;;;;;;;;;;;;;15.74;68.70;100871.69;4917712;29;20029;-64
2021/06/08 03:48:56;;;;;;;;;;;;;;;15.90;68.08;100875.09;4917572;29;20029;-64
2021/06/08 03:51:26;;;;;;;;;;;;;;;16.03;67.91;100874.31;4917520;29;19933;-64
2021/06/08 03:53:53;;;;;;;;;;;;;;;15.96;68.34;100870.19;4917580;29;20026;-65
2021/06/08 03:56:20;;;;;;;;;;;;;;;15.97;68.27;100877.53;4917810;29;19998;-64
2021/06/08 03:58:47;;;;;;;;;;;;;;;16.02;67.90;100880.22;4917836;29;19973;-64
2021/06/08 04:01:14;;;;;;;;;;;;;;;16.03;67.64;100879.06;4917375;29;20013;-64
2021/06/08 04:03:41;;;;;;;;;;;;;;;16.17;67.26;100885.59;4917495;29;19922;-64
2021/06/08 04:06:09;;;;;;;;;;;;;;;16.21;67.14;100881.00;4917399;29;20419;-64
2021/06/08 04:08:36;;;;;;;;;;;;;;;15.91;68.04;100884.38;4918417;29;20279;-64
2021/06/08 04:11:02;;;;;;;;;;;;;;;15.85;67.99;100890.09;4917511;29;20046;-64
2021/06/08 04:13:29;;;;;;;;;;;;;;;15.98;67.41;100887.63;4917291;29;19970;-64
2021/06/08 04:15:56;;;;;;;;;;;;;;;16.14;67.07;100886.22;4917277;29;19974;-64
2021/06/08 04:18:29;;;;;;;;;;;;;;;16.18;66.60;100887.25;4917885;29;20365;-64
2021/06/08 04:20:55;;;;;;;;;;;;;;;16.31;66.42;100885.63;4917272;29;20454;-64
2021/06/08 04:23:23;;;;;;;;;;;;;;;16.45;66.30;100892.09;4919943;29;19966;-64
2021/06/08 04:25:50;;;;;;;;;;;;;;;16.53;65.90;100888.53;4921382;29;19994;-64
2021/06/08 04:28:18;;;;;;;;;;;;;;;16.56;65.83;100893.56;4921326;29;20052;-64
2021/06/08 04:30:46;;;;;;;;;;;;;;;16.65;65.30;100890.88;4921224;29;20013;-64
2021/06/08 04:33:13;;;;;;;;;;;;;;;16.71;65.18;100885.94;4921348;29;19998;-64
2021/06/08 04:35:42;;;;;;;;;;;;;;;16.79;65.23;100888.06;4920972;29;19978;-64
2021/06/08 04:38:08;;;;;;;;;;;;;;;16.77;65.16;100884.72;4921237;29;20018;-64
2021/06/08 04:40:36;;;;;;;;;;;;;;;16.64;65.32;100882.69;4919691;29;20021;-64
2021/06/08 04:43:03;;;;;;;;;;;;;;;16.62;65.21;100888.66;4920839;29;20022;-64
2021/06/08 04:45:30;;;;;;;;;;;;;;;16.65;64.74;100896.50;4920875;29;20390;-64
2021/06/08 04:47:57;;;;;;;;;;;;;;;16.71;64.62;100889.59;4921816;29;19994;-64
2021/06/08 04:50:24;;;;;;;;;;;;;;;16.74;64.65;100889.00;4920594;29;19923;-64
2021/06/08 04:52:56;;;;;;;;;;;;;;;16.76;64.42;100898.00;4920968;29;20328;-64
2021/06/08 04:55:24;;;;;;;;;;;;;;;16.85;64.41;100900.88;4920622;29;19963;-64
2021/06/08 04:57:51;;;;;;;;;;;;;;;16.91;64.42;100907.28;4920912;29;19962;-64
2021/06/08 05:00:20;;;;;;;;;;;;;;;16.97;64.38;100903.19;4920490;29;20018;-64
2021/06/08 05:03:07;;;;;;;;;;;;;;;17.00;64.24;100908.22;4920564;29;19985;-64
2021/06/08 05:05:35;;;;;;;;;;;;;;;17.03;64.02;100905.59;4919754;29;20432;-64
2021/06/08 05:08:04;;;;;;;;;;;;;;;17.07;64.16;100905.78;4920915;29;20372;-64
2021/06/08 05:10:33;;;;;;;;;;;;;;;17.09;64.07;100903.47;4920175;29;19966;-64
2021/06/08 05:13:01;;;;;;;;;;;;;;;17.12;63.83;100905.66;4920645;29;19923;-64
2021/06/08 05:15:28;;;;;;;;;;;;;;;17.14;63.82;100908.19;4919123;29;20017;-64
2021/06/08 05:17:55;;;;;;;;;;;;;;;17.16;63.80;100912.38;4920406;29;20013;-64
2021/06/08 05:20:23;;;;;;;;;;;;;;;17.16;63.75;100903.91;4920186;29;19922;-64
2021/06/08 05:22:50;;;;;;;;;;;;;;;17.16;63.41;100906.72;4920395;29;20018;-64
2021/06/08 05:25:33;;;;;;;;;;;;;;;17.20;63.48;100904.94;4874952;29;19930;-64
2021/06/08 05:28:00;;;;;;;;;;;;;;;17.21;63.30;100911.41;4920161;29;20455;-64
2021/06/08 05:30:27;;;;;;;;;;;;;;;17.16;63.32;100912.38;4920235;29;20364;-64
2021/06/08 05:32:54;;;;;;;;;;;;;;;17.11;63.21;100912.47;4919460;29;20379;-64
2021/06/08 05:35:25;;;;;;;;;;;;;;;17.13;62.96;100913.00;4919890;29;19966;-64
2021/06/08 05:37:52;;;;;;;;;;;;;;;17.16;63.06;100912.38;4920183;29;19930;-64
2021/06/08 05:40:22;;;;;;;;;;;;;;;17.19;62.96;100917.34;4920164;29;19939;-64
2021/06/08 05:42:49;;;;;;;;;;;;;;;17.19;62.88;100919.34;4920028;29;20005;-64
2021/06/08 05:45:20;;;;;;;;;;;;;;;17.21;63.20;100917.06;4920084;29;20283;-64
2021/06/08 05:47:46;;;;;;;;;;;;;;;17.24;62.86;100913.59;4919720;29;20438;-64
2021/06/08 05:50:14;;;;;;;;;;;;;;;17.25;62.80;100918.91;4919521;29;19998;-64
2021/06/08 05:52:40;;;;;;;;;;;;;;;17.27;62.73;100925.09;4920524;29;20017;-64
2021/06/08 05:55:10;;;;;;;;;;;;;;;17.31;62.85;100916.00;4919648;29;20022;-64
2021/06/08 05:57:37;;;;;;;;;;;;;;;17.34;62.90;100912.53;4919560;29;20022;-64
2021/06/08 06:00:04;;;;;;;;;;;;;;;17.36;62.70;100913.03;4920104;29;20030;-64
2021/06/08 06:02:33;;;;;;;;;;;;;;;17.40;62.95;100914.06;4919603;29;19927;-64
2021/06/08 06:05:00;;;;;;;;;;;;;;;17.43;62.58;100910.63;4919517;29;19923;-65
2021/06/08 06:07:27;;;;;;;;;;;;;;;17.46;62.80;100915.63;4919415;29;19971;-67
2021/06/08 06:09:54;;;;;;;;;;;;;;;17.47;62.47;100912.50;4919613;29;19962;-65
2021/06/08 06:12:21;;;;;;;;;;;;;;;17.50;62.37;100917.53;4919236;29;20018;-64
2021/06/08 06:14:49;;;;;;;;;;;;;;;17.53;62.42;100922.50;4919710;29;20283;-64
2021/06/08 06:17:16;;;;;;;;;;;;;;;17.51;62.43;100910.72;4919702;29;19945;-64
2021/06/08 06:19:43;;;;;;;;;;;;;;;17.36;62.69;100922.34;4919014;29;20340;-64
2021/06/08 06:22:10;;;;;;;;;;;;;;;17.22;62.56;100928.03;4902916;29;20344;-64
2021/06/08 06:24:37;;;;;;;;;;;;;;;17.15;62.68;100919.16;4918967;29;20406;-64
2021/06/08 06:27:04;;;;;;;;;;;;;;;17.14;62.67;100919.47;4919160;29;19934;-64
2021/06/08 06:29:31;;;;;;;;;;;;;;;17.11;62.88;100926.59;4919233;29;19958;-64
2021/06/08 06:31:58;;;;;;;;;;;;;;;17.15;62.87;100935.25;4918912;29;19930;-63
2021/06/08 06:34:25;;;;;;;;;;;;;;;17.18;63.00;100928.97;4918863;29;19923;-63
2021/06/08 06:36:56;;;;;;;;;;;;;;;17.13;62.99;100934.72;4919031;29;20010;-62
2021/06/08 06:39:24;;;;;;;;;;;;;;;17.16;62.88;100937.78;4918962;29;19923;-63
2021/06/08 06:41:52;;;;;;;;;;;;;;;17.17;63.03;100933.78;4919070;29;20017;-64
2021/06/08 06:44:20;;;;;;;;;;;;;;;17.14;62.84;100936.41;4918367;29;19923;-64
2021/06/08 06:46:47;;;;;;;;;;;;;;;17.14;62.98;100931.59;4917962;29;19958;-63
2021/06/08 06:49:14;;;;;;;;;;;;;;;17.14;63.22;100937.25;4918707;29;19926;-64
2021/06/08 06:51:42;;;;;;;;;;;;;;;17.16;63.17;100940.59;4918602;29;20016;-64
2021/06/08 06:54:09;;;;;;;;;;;;;;;17.19;63.15;100939.94;4902079;29;20013;-64
2021/06/08 06:56:37;;;;;;;;;;;;;;;17.21;63.56;100936.81;4918432;29;19923;-64
2021/06/08 06:59:05;;;;;;;;;;;;;;;17.26;63.13;100940.38;4918952;29;20033;-64
2021/06/08 07:01:32;;;;;;;;;;;;;;;17.29;63.33;100942.53;4918620;29;20026;-67
2021/06/08 07:04:00;;;;;;;;;;;;;;;17.39;62.92;100951.94;4918342;29;19923;-64
2021/06/08 07:06:28;;;;;;;;;;;;;;;17.41;63.27;100944.00;4918610;29;19930;-65
2021/06/08 07:08:56;;;;;;;;;;;;;;;17.51;63.37;100946.59;4918169;29;19923;-65
2021/06/08 07:11:23;;;;;;;;;;;;;;;17.61;63.44;100946.34;4918092;29;20010;-65
2021/06/08 07:13:50;;;;;;;;;;;;;;;17.69;63.32;100937.09;4918165;29;20021;-65
2021/06/08 07:16:19;;;;;;;;;;;;;;;17.87;63.16;100942.94;4918111;29;20006;-63
2021/06/08 07:18:46;;;;;;;;;;;;;;;18.05;62.99;100939.09;4917997;29;19923;-64
2021/06/08 07:21:14;;;;;;;;;;;;;;;18.20;62.92;100938.69;4918220;29;20006;-64
2021/06/08 07:23:42;;;;;;;;;;;;;;;18.51;62.96;100935.03;4918353;29;20005;-64
2021/06/08 07:26:11;;;;;;;;;;;;;;;18.90;62.79;100941.88;4917912;29;20021;-63
2021/06/08 07:28:38;;;;;;;;;;;;;;;19.37;62.50;100937.34;4918363;29;19997;-64
2021/06/08 07:31:05;;;;;;;;;;;;;;;19.79;62.10;100934.91;4918064;29;20026;-65
2021/06/08 07:33:31;;;;;;;;;;;;;;;20.06;62.05;100938.56;4918111;29;19962;-65
2021/06/08 07:36:27;;;;;;;;;;;;;;;20.26;61.60;100942.69;4917813;29;19923;-64
2021/06/08 07:39:03;;;;;;;;;;;;;;;20.47;61.57;100937.97;4916696;29;20010;-65
2021/06/08 07:41:44;;;;;;;;;;;;;;;20.75;61.21;100938.44;4917951;29;20033;-65
2021/06/08 07:44:16;;;;;;;;;;;;;;;21.06;60.54;100942.97;4917966;29;19929;-65
2021/06/08 07:46:45;;;;;;;;;;;;;;;21.36;60.14;100940.13;4917672;29;20013;-65
2021/06/08 07:49:13;;;;;;;;;;;;;;;21.55;59.97;100931.16;4917623;29;19923;-65
2021/06/08 07:51:44;;;;;;;;;;;;;;;21.67;59.77;100934.03;4917444;29;20009;-65
2021/06/08 07:54:11;;;;;;;;;;;;;;;21.89;59.62;100930.84;4917528;29;20403;-65
2021/06/08 07:56:38;;;;;;;;;;;;;;;22.13;58.94;100938.66;4917298;29;20026;-65
2021/06/08 07:59:05;;;;;;;;;;;;;;;22.06;59.06;100944.09;4917421;29;19958;-65
2021/06/08 08:01:32;;;;;;;;;;;;;;;22.17;58.73;100947.34;4917854;29;20001;-65
2021/06/08 08:03:59;;;;;;;;;;;;;;;22.34;58.40;100940.66;4917518;29;20018;-65
2021/06/08 08:06:27;;;;;;;;;;;;;;;22.50;58.27;100949.38;4917687;29;20006;-64
2021/06/08 08:08:54;;;;;;;;;;;;;;;22.62;57.96;100946.53;4917330;29;20010;-65
2021/06/08 08:11:22;;;;;;;;;;;;;;;22.55;58.22;100938.56;4917239;29;19966;-65
2021/06/08 08:13:49;;;;;;;;;;;;;;;22.63;58.00;100942.50;4917691;29;20005;-65
2021/06/08 08:16:17;;;;;;;;;;;;;;;22.62;57.65;100950.22;4900730;29;20017;-65
2021/06/08 08:18:44;;;;;;;;;;;;;;;22.45;58.11;100941.88;4917080;29;19927;-65
2021/06/08 08:21:14;;;;;;;;;;;;;;;22.56;57.64;100936.56;4917543;29;20005;-65
2021/06/08 08:23:41;;;;;;;;;;;;;;;22.85;57.26;100935.53;4917506;29;20021;-65
2021/06/08 08:26:08;;;;;;;;;;;;;;;23.13;56.51;100930.81;4917137;29;19929;-65
2021/06/08 08:28:36;;;;;;;;;;;;;;;23.40;55.99;100939.81;4917586;29;19974;-65
2021/06/08 08:31:07;;;;;;;;;;;;;;;23.60;55.46;100944.53;4917375;29;20377;-65
2021/06/08 08:33:34;;;;;;;;;;;;;;;23.77;55.17;100939.78;4917152;29;20022;-65
2021/06/08 08:36:01;;;;;;;;;;;;;;;23.88;55.27;100935.22;4917413;29;19962;-64
2021/06/08 08:38:29;;;;;;;;;;;;;;;23.97;55.03;100932.25;4917099;29;19947;-64
2021/06/08 08:40:57;;;;;;;;;;;;;;;24.12;54.75;100934.28;4916998;29;19923;-65
2021/06/08 08:43:41;;;;;;;;;;;;;;;24.21;54.50;100931.31;4917866;29;19923;-64
2021/06/08 08:46:08;;;;;;;;;;;;;;;24.27;53.74;100935.53;4900634;29;20351;-65
2021/06/08 08:48:36;;;;;;;;;;;;;;;24.38;53.86;100930.16;4917282;29;20415;-64
2021/06/08 08:51:03;;;;;;;;;;;;;;;24.39;52.97;100928.94;4917040;29;20017;-65
2021/06/08 08:53:30;;;;;;;;;;;;;;;24.35;53.64;100926.81;4917367;29;20005;-65
2021/06/08 08:56:17;;;;;;;;;;;;;;;24.48;53.89;100935.31;4916897;29;20364;-65
2021/06/08 08:58:45;;;;;;;;;;;;;;;24.63;53.29;100934.53;4917507;29;19927;-64
2021/06/08 09:01:11;;;;;;;;;;;;;;;24.75;53.05;100939.31;4916839;29;19923;-66
2021/06/08 09:03:38;;;;;;;;;;;;;;;24.94;52.92;100930.03;4916821;29;19974;-66
2021/06/08 09:06:06;;;;;;;;;;;;;;;24.99;52.66;100935.44;4917188;29;20003;-66
2021/06/08 09:08:33;;;;;;;;;;;;;;;24.96;52.21;100930.50;4901048;29;20010;-65
2021/06/08 09:11:00;;;;;;;;;;;;;;;25.16;51.94;100932.25;4920222;29;20018;-66
2021/06/08 09:13:27;;;;;;;;;;;;;;;25.36;51.68;100927.41;4920530;29;20446;-65
2021/06/08 09:15:54;;;;;;;;;;;;;;;25.53;51.41;100923.28;4920249;29;20295;-65
2021/06/08 09:18:23;;;;;;;;;;;;;;;25.70;50.91;100928.59;4920082;29;19966;-65
2021/06/08 09:20:51;;;;;;;;;;;;;;;25.72;50.76;100925.38;4920091;29;19923;-64
2021/06/08 09:23:22;;;;;;;;;;;;;;;25.73;50.85;100921.28;4920078;29;19924;-65
2021/06/08 09:25:51;;;;;;;;;;;;;;;25.82;49.97;100926.84;4920323;29;19969;-67
2021/06/08 09:28:25;;;;;;;;;;;;;;;25.90;49.86;100925.78;4920092;29;20379;-65
2021/06/08 09:30:57;;;;;;;;;;;;;;;26.14;49.44;100925.47;4919952;29;20431;-65
2021/06/08 09:33:24;;;;;;;;;;;;;;;26.22;49.77;100927.28;4920332;29;19955;-65
2021/06/08 09:35:52;;;;;;;;;;;;;;;26.27;49.33;100920.41;4919861;29;19966;-64
2021/06/08 09:38:20;;;;;;;;;;;;;;;26.43;49.27;100923.19;4920111;29;19923;-66
2021/06/08 09:40:47;;;;;;;;;;;;;;;26.44;49.18;100927.69;4919852;29;19977;-64
2021/06/08 09:43:14;;;;;;;;;;;;;;;26.49;48.73;100926.56;4919733;29;19922;-65
2021/06/08 09:45:41;;;;;;;;;;;;;;;26.55;48.86;100920.16;4919648;29;20022;-66
2021/06/08 09:48:08;;;;;;;;;;;;;;;26.69;48.65;100919.59;4919967;29;20351;-65
2021/06/08 09:50:36;;;;;;;;;;;;;;;26.80;48.29;100922.63;4919496;29;20026;-65
2021/06/08 09:53:15;;;;;;;;;;;;;;;26.89;48.17;100928.94;4919507;29;20383;-65
2021/06/08 09:55:55;;;;;;;;;;;;;;;27.09;47.85;100921.09;4919793;29;19958;-65
2021/06/08 09:58:22;;;;;;;;;;;;;;;27.13;47.50;100928.56;4919824;29;19923;-65
2021/06/08 10:01:06;;;;;;;;;;;;;;;27.33;47.32;100926.44;4919769;29;19955;-65
2021/06/08 10:03:33;;;;;;;;;;;;;;;27.35;47.56;100921.16;4919367;29;20380;-65
2021/06/08 10:06:20;;;;;;;;;;;;;;;27.28;47.88;100920.19;4920450;29;19937;-65
2021/06/08 10:08:57;;;;;;;;;;;;;;;27.33;47.80;100928.47;4919173;29;20014;-65
2021/06/08 10:11:25;;;;;;;;;;;;;;;27.54;47.50;100922.22;4919177;29;19930;-67
2021/06/08 10:13:59;;;;;;;;;;;;;;;27.40;47.58;100929.41;4920142;29;19973;-65
2021/06/08 10:16:29;;;;;;;;;;;;;;;27.26;47.99;100922.63;4919432;29;20001;-65
2021/06/08 10:18:56;;;;;;;;;;;;;;;27.56;48.10;100920.63;4919194;29;20317;-64
2021/06/08 10:21:36;;;;;;;;;;;;;;;27.85;47.76;100924.75;4919058;29;20027;-65
2021/06/08 10:24:04;;;;;;;;;;;;;;;28.09;47.63;100926.28;4919526;29;19962;-64
2021/06/08 10:26:34;;;;;;;;;;;;;;;28.29;47.12;100920.34;4918936;29;20380;-64
2021/06/08 10:29:05;;;;;;;;;;;;;;;28.30;47.20;100924.88;4919373;29;20005;-64
2021/06/08 10:31:32;;;;;;;;;;;;;;;28.11;47.16;100875.03;4902104;29;20009;-64
2021/06/08 10:34:00;;;;;;;;;;;;;;;28.46;47.31;100924.69;4919304;29;19927;-64
2021/06/08 10:36:29;;;;;;;;;;;;;;;28.54;46.97;100918.59;4918869;29;20398;-64
2021/06/08 10:38:57;;;;;;;;;;;;;;;28.76;47.08;100919.66;4918725;29;19963;-64
2021/06/08 10:41:24;;;;;;;;;;;;;;;28.84;47.04;100932.03;4918957;29;19945;-64
2021/06/08 10:43:51;;;;;;;;;;;;;;;28.95;46.42;100924.31;4918699;29;19923;-64
2021/06/08 10:46:22;;;;;;;;;;;;;;;28.98;46.73;100920.66;4919188;29;19962;-64
2021/06/08 10:48:50;;;;;;;;;;;;;;;28.96;46.64;100930.91;4919413;29;19963;-64
2021/06/08 10:51:18;;;;;;;;;;;;;;;29.13;46.57;100929.41;4918733;29;20214;-64
2021/06/08 10:53:56;;;;;;;;;;;;;;;29.35;46.36;100928.38;4918528;29;19973;-64
2021/06/08 10:56:25;;;;;;;;;;;;;;;29.38;46.65;100923.88;4918339;29;19962;-64
2021/06/08 10:58:53;;;;;;;;;;;;;;;29.43;46.34;100926.34;4918408;29;20005;-64
2021/06/08 11:01:39;;;;;;;;;;;;;;;29.52;46.43;100919.03;4918352;29;20035;-64
2021/06/08 11:04:28;;;;;;;;;;;;;;;29.82;46.63;100934.44;4918325;29;19923;-68
2021/06/08 11:06:56;;;;;;;;;;;;;;;29.64;46.26;100923.66;4918539;29;19927;-64
2021/06/08 11:09:23;;;;;;;;;;;;;;;29.44;45.97;100930.91;4918721;29;20356;-64
2021/06/08 11:11:54;;;;;;;;;;;;;;;29.48;46.01;100932.56;4918335;29;20006;-64
2021/06/08 11:14:30;;;;;;;;;;;;;;;29.48;45.48;100932.56;4918862;29;20352;-64
2021/06/08 11:17:05;;;;;;;;;;;;;;;29.51;45.75;100928.91;4918063;29;20359;-64
2021/06/08 11:19:43;;;;;;;;;;;;;;;29.63;45.93;100932.69;4918238;29;20407;-64
2021/06/08 11:22:11;;;;;;;;;;;;;;;29.73;46.32;100935.63;4917997;29;19923;-64
2021/06/08 11:24:40;;;;;;;;;;;;;;;29.89;45.92;100928.72;4918001;29;20017;-64
2021/06/08 11:27:07;;;;;;;;;;;;;;;29.92;45.65;100933.69;4917787;29;20372;-64
2021/06/08 11:29:49;;;;;;;;;;;;;;;29.95;45.79;100932.88;4917846;29;19978;-64
2021/06/08 11:32:28;;;;;;;;;;;;;;;29.82;45.05;100922.94;4917305;29;19923;-64
2021/06/08 11:35:22;;;;;;;;;;;;;;;29.74;45.75;100922.91;4917993;29;19950;-64
2021/06/08 11:37:51;;;;;;;;;;;;;;;29.90;45.96;100934.06;4915983;29;19970;-65
2021/06/08 11:43:09;;;;;;;;;;;;;;;30.21;45.92;100928.88;4917633;29;19962;-64
2021/06/08 11:45:46;;;;;;;;;;;;;;;30.40;45.50;100933.47;4917418;29;19923;-64
2021/06/08 11:48:31;;;;;;;;;;;;;;;30.42;45.18;100928.09;4917859;29;19927;-64
2021/06/08 11:51:01;;;;;;;;;;;;;;;30.40;45.12;100925.66;4917808;29;19962;-65
2021/06/08 11:53:28;;;;;;;;;;;;;;;30.42;44.61;100917.41;4917878;29;20033;-65
2021/06/08 11:56:04;;;;;;;;;;;;;;;30.37;44.46;100914.94;4917471;29;20093;-65
2021/06/08 11:58:32;;;;;;;;;;;;;;;30.07;44.45;100925.91;4917884;29;20376;-65
2021/06/08 12:00:59;;;;;;;;;;;;;;;29.98;44.76;100923.41;4917384;29;19970;-65
2021/06/08 12:03:29;;;;;;;;;;;;;;;30.05;44.33;100925.47;4917626;29;19966;-65
2021/06/08 12:05:57;;;;;;;;;;;;;;;30.28;42.67;100917.38;4917546;29;19923;-65
2021/06/08 12:08:24;;;;;;;;;;;;;;;30.48;42.11;100917.84;4917220;29;20022;-64
2021/06/08 12:10:55;;;;;;;;;;;;;;;31.06;41.30;100916.69;4917486;29;20341;-65
2021/06/08 12:13:29;;;;;;;;;;;;;;;31.78;39.21;100911.63;4917143;29;19982;-65
2021/06/08 12:15:56;;;;;;;;;;;;;;;32.68;38.28;100911.19;4917203;29;20025;-65
2021/06/08 12:18:29;;;;;;;;;;;;;;;33.63;36.72;100907.91;4917305;29;19930;-65
2021/06/08 12:21:19;;;;;;;;;;;;;;;34.43;35.51;100915.19;4917086;29;20014;-65
2021/06/08 12:23:46;;;;;;;;;;;;;;;35.16;34.02;100904.13;4917058;29;19982;-65
2021/06/08 12:26:14;;;;;;;;;;;;;;;35.72;32.97;100910.13;4917087;29;20018;-65
2021/06/08 12:28:43;;;;;;;;;;;;;;;36.22;32.71;100900.38;4917042;29;20443;-65
2021/06/08 12:31:19;;;;;;;;;;;;;;;36.65;32.47;100911.03;4917228;29;19923;-65
2021/06/08 12:33:47;;;;;;;;;;;;;;;36.83;31.70;100908.50;4917419;29;19931;-65
2021/06/08 12:36:14;;;;;;;;;;;;;;;37.09;32.21;100909.53;4917178;29;20451;-66
2021/06/08 12:38:47;;;;;;;;;;;;;;;37.18;31.79;100908.88;4918049;29;19927;-65
2021/06/08 12:41:14;;;;;;;;;;;;;;;37.41;31.39;100905.75;4917033;29;20022;-65
2021/06/08 12:43:49;;;;;;;;;;;;;;;37.51;30.85;100908.84;4918203;29;20009;-65
2021/06/08 12:46:33;;;;;;;;;;;;;;;37.98;30.37;100908.38;4921053;29;20348;-65
2021/06/08 12:49:10;;;;;;;;;;;;;;;38.81;29.89;100907.44;4920758;29;19929;-66